sensor_id;sensor_type;location;lat;lon;timestamp;P1;durP1;ratioP1;P2;durP2;ratioP2
17153;SDS011;8692;52.164;7.558;2022-09-17T00:01:51;7.70;;;2.07;;
17153;SDS011;8692;52.164;7.558;2022-09-17T00:04:20;6.63;;;1.70;;
17153;SDS011;8692;52.164;7.558;2022-09-17T00:06:50;8.30;;;2.23;;
17153;SDS011;8692;52.164;7.558;2022-09-17T00:09:19;8.57;;;1.83;;
17153;SDS011;8692;52.164;7.558;2022-09-17T00:11:47;7.93;;;1.70;;
17153;SDS011;8692;52.164;7.558;2022-09-17T00:14:15;6.67;;;2.03;;
17153;SDS011;8692;52.164;7.558;2022-09-17T00:16:48;4.80;;;1.53;;
17153;SDS011;8692;52.164;7.558;2022-09-17T00:19:17;5.67;;;1.50;;
17153;SDS011;8692;52.164;7.558;2022-09-17T00:21:49;4.67;;;1.23;;
17153;SDS011;8692;52.164;7.558;2022-09-17T00:24:18;4.37;;;1.37;;
17153;SDS011;8692;52.164;7.558;2022-09-17T00:26:47;7.50;;;1.90;;
17153;SDS011;8692;52.164;7.558;2022-09-17T00:29:18;6.47;;;1.80;;
17153;SDS011;8692;52.164;7.558;2022-09-17T00:31:47;4.57;;;1.50;;
17153;SDS011;8692;52.164;7.558;2022-09-17T00:34:18;9.77;;;1.97;;
17153;SDS011;8692;52.164;7.558;2022-09-17T00:36:47;4.93;;;2.00;;
17153;SDS011;8692;52.164;7.558;2022-09-17T00:39:15;5.73;;;2.10;;
17153;SDS011;8692;52.164;7.558;2022-09-17T00:41:46;9.43;;;2.00;;
17153;SDS011;8692;52.164;7.558;2022-09-17T00:47:18;8.67;;;1.97;;
17153;SDS011;8692;52.164;7.558;2022-09-17T00:49:50;6.40;;;1.70;;
17153;SDS011;8692;52.164;7.558;2022-09-17T00:52:24;6.83;;;1.73;;
17153;SDS011;8692;52.164;7.558;2022-09-17T00:54:56;7.27;;;2.37;;
17153;SDS011;8692;52.164;7.558;2022-09-17T00:57:28;9.80;;;2.63;;
17153;SDS011;8692;52.164;7.558;2022-09-17T00:59:59;6.43;;;1.67;;
17153;SDS011;8692;52.164;7.558;2022-09-17T01:02:29;7.40;;;1.97;;
17153;SDS011;8692;52.164;7.558;2022-09-17T01:04:57;8.33;;;2.07;;
17153;SDS011;8692;52.164;7.558;2022-09-17T01:07:30;11.70;;;2.50;;
17153;SDS011;8692;52.164;7.558;2022-09-17T01:10:11;7.03;;;2.40;;
17153;SDS011;8692;52.164;7.558;2022-09-17T01:12:55;11.60;;;2.60;;
17153;SDS011;8692;52.164;7.558;2022-09-17T01:15:34;8.70;;;2.50;;
17153;SDS011;8692;52.164;7.558;2022-09-17T01:18:12;8.40;;;1.90;;
17153;SDS011;8692;52.164;7.558;2022-09-17T01:24:00;10.73;;;2.30;;
17153;SDS011;8692;52.164;7.558;2022-09-17T01:27:06;11.53;;;2.10;;
17153;SDS011;8692;52.164;7.558;2022-09-17T01:32:54;9.93;;;2.03;;
17153;SDS011;8692;52.164;7.558;2022-09-17T01:35:29;10.53;;;1.80;;
17153;SDS011;8692;52.164;7.558;2022-09-17T01:38:02;7.80;;;2.17;;
17153;SDS011;8692;52.164;7.558;2022-09-17T01:40:38;11.10;;;2.03;;
17153;SDS011;8692;52.164;7.558;2022-09-17T01:43:15;9.70;;;1.90;;
17153;SDS011;8692;52.164;7.558;2022-09-17T01:45:50;8.83;;;2.40;;
17153;SDS011;8692;52.164;7.558;2022-09-17T01:48:20;4.60;;;1.47;;
17153;SDS011;8692;52.164;7.558;2022-09-17T01:50:54;6.80;;;2.20;;
17153;SDS011;8692;52.164;7.558;2022-09-17T01:53:29;5.47;;;1.70;;
17153;SDS011;8692;52.164;7.558;2022-09-17T01:56:04;12.17;;;2.07;;
17153;SDS011;8692;52.164;7.558;2022-09-17T01:58:37;7.90;;;2.17;;
17153;SDS011;8692;52.164;7.558;2022-09-17T02:01:12;10.10;;;2.70;;
17153;SDS011;8692;52.164;7.558;2022-09-17T02:03:48;8.83;;;1.93;;
17153;SDS011;8692;52.164;7.558;2022-09-17T02:06:24;9.13;;;2.40;;
17153;SDS011;8692;52.164;7.558;2022-09-17T02:08:59;14.30;;;2.80;;
17153;SDS011;8692;52.164;7.558;2022-09-17T02:11:33;11.90;;;2.53;;
17153;SDS011;8692;52.164;7.558;2022-09-17T02:14:08;11.33;;;2.17;;
17153;SDS011;8692;52.164;7.558;2022-09-17T02:16:42;7.80;;;2.20;;
17153;SDS011;8692;52.164;7.558;2022-09-17T02:19:16;9.10;;;1.87;;
17153;SDS011;8692;52.164;7.558;2022-09-17T02:21:49;15.87;;;2.83;;
17153;SDS011;8692;52.164;7.558;2022-09-17T02:24:25;10.47;;;2.30;;
17153;SDS011;8692;52.164;7.558;2022-09-17T02:27:01;9.60;;;2.00;;
17153;SDS011;8692;52.164;7.558;2022-09-17T02:29:33;8.30;;;2.23;;
17153;SDS011;8692;52.164;7.558;2022-09-17T02:32:07;9.63;;;2.00;;
17153;SDS011;8692;52.164;7.558;2022-09-17T02:34:36;8.20;;;2.10;;
17153;SDS011;8692;52.164;7.558;2022-09-17T02:37:05;8.70;;;2.97;;
17153;SDS011;8692;52.164;7.558;2022-09-17T02:39:34;7.80;;;1.63;;
17153;SDS011;8692;52.164;7.558;2022-09-17T02:42:04;7.77;;;2.03;;
17153;SDS011;8692;52.164;7.558;2022-09-17T02:44:47;13.93;;;2.70;;
17153;SDS011;8692;52.164;7.558;2022-09-17T02:47:31;7.83;;;2.23;;
17153;SDS011;8692;52.164;7.558;2022-09-17T02:50:23;10.63;;;2.20;;
17153;SDS011;8692;52.164;7.558;2022-09-17T02:53:08;9.93;;;2.00;;
17153;SDS011;8692;52.164;7.558;2022-09-17T02:55:51;11.50;;;2.10;;
17153;SDS011;8692;52.164;7.558;2022-09-17T02:58:28;8.73;;;2.40;;
17153;SDS011;8692;52.164;7.558;2022-09-17T03:01:02;7.97;;;2.13;;
17153;SDS011;8692;52.164;7.558;2022-09-17T03:03:51;13.43;;;3.07;;
17153;SDS011;8692;52.164;7.558;2022-09-17T03:06:25;16.47;;;3.57;;
17153;SDS011;8692;52.164;7.558;2022-09-17T03:08:55;9.60;;;2.50;;
17153;SDS011;8692;52.164;7.558;2022-09-17T03:11:23;11.93;;;2.37;;
17153;SDS011;8692;52.164;7.558;2022-09-17T03:13:52;8.97;;;2.23;;
17153;SDS011;8692;52.164;7.558;2022-09-17T03:16:20;15.10;;;2.60;;
17153;SDS011;8692;52.164;7.558;2022-09-17T03:18:52;6.67;;;1.93;;
17153;SDS011;8692;52.164;7.558;2022-09-17T03:21:20;7.23;;;2.33;;
17153;SDS011;8692;52.164;7.558;2022-09-17T03:23:48;5.80;;;1.97;;
17153;SDS011;8692;52.164;7.558;2022-09-17T03:26:19;7.20;;;1.80;;
17153;SDS011;8692;52.164;7.558;2022-09-17T03:28:52;9.83;;;1.87;;
17153;SDS011;8692;52.164;7.558;2022-09-17T03:31:22;10.90;;;2.07;;
17153;SDS011;8692;52.164;7.558;2022-09-17T03:33:54;7.17;;;2.13;;
17153;SDS011;8692;52.164;7.558;2022-09-17T03:36:22;9.63;;;2.00;;
17153;SDS011;8692;52.164;7.558;2022-09-17T03:38:53;11.93;;;2.33;;
17153;SDS011;8692;52.164;7.558;2022-09-17T03:41:22;11.23;;;2.60;;
17153;SDS011;8692;52.164;7.558;2022-09-17T03:43:53;6.97;;;1.90;;
17153;SDS011;8692;52.164;7.558;2022-09-17T03:46:21;8.67;;;2.27;;
17153;SDS011;8692;52.164;7.558;2022-09-17T03:48:49;12.50;;;2.87;;
17153;SDS011;8692;52.164;7.558;2022-09-17T03:51:19;7.87;;;1.70;;
17153;SDS011;8692;52.164;7.558;2022-09-17T03:53:49;11.60;;;2.10;;
17153;SDS011;8692;52.164;7.558;2022-09-17T03:56:17;9.57;;;1.97;;
17153;SDS011;8692;52.164;7.558;2022-09-17T03:58:45;9.00;;;2.20;;
17153;SDS011;8692;52.164;7.558;2022-09-17T04:01:15;7.57;;;1.97;;
17153;SDS011;8692;52.164;7.558;2022-09-17T04:03:46;7.53;;;1.80;;
17153;SDS011;8692;52.164;7.558;2022-09-17T04:06:16;6.67;;;1.63;;
17153;SDS011;8692;52.164;7.558;2022-09-17T04:08:48;13.20;;;2.50;;
17153;SDS011;8692;52.164;7.558;2022-09-17T04:11:16;6.93;;;1.70;;
17153;SDS011;8692;52.164;7.558;2022-09-17T04:13:44;8.97;;;2.30;;
17153;SDS011;8692;52.164;7.558;2022-09-17T04:16:13;9.97;;;2.53;;
17153;SDS011;8692;52.164;7.558;2022-09-17T04:18:41;11.50;;;1.77;;
17153;SDS011;8692;52.164;7.558;2022-09-17T04:21:09;9.70;;;1.87;;
17153;SDS011;8692;52.164;7.558;2022-09-17T04:23:39;11.60;;;2.40;;
17153;SDS011;8692;52.164;7.558;2022-09-17T04:26:07;7.27;;;1.90;;
17153;SDS011;8692;52.164;7.558;2022-09-17T04:28:35;10.03;;;2.27;;
17153;SDS011;8692;52.164;7.558;2022-09-17T04:31:06;7.63;;;2.13;;
17153;SDS011;8692;52.164;7.558;2022-09-17T04:33:34;14.40;;;2.50;;
17153;SDS011;8692;52.164;7.558;2022-09-17T04:36:05;7.87;;;1.60;;
17153;SDS011;8692;52.164;7.558;2022-09-17T04:38:33;6.90;;;1.60;;
17153;SDS011;8692;52.164;7.558;2022-09-17T04:41:04;6.57;;;2.33;;
17153;SDS011;8692;52.164;7.558;2022-09-17T04:43:33;7.80;;;1.80;;
17153;SDS011;8692;52.164;7.558;2022-09-17T04:46:01;11.00;;;2.20;;
17153;SDS011;8692;52.164;7.558;2022-09-17T04:48:30;6.17;;;2.00;;
17153;SDS011;8692;52.164;7.558;2022-09-17T04:50:58;12.43;;;2.50;;
17153;SDS011;8692;52.164;7.558;2022-09-17T04:53:26;9.73;;;2.63;;
17153;SDS011;8692;52.164;7.558;2022-09-17T04:55:56;7.67;;;1.90;;
17153;SDS011;8692;52.164;7.558;2022-09-17T04:58:25;5.90;;;1.77;;
17153;SDS011;8692;52.164;7.558;2022-09-17T05:00:56;7.17;;;2.20;;
17153;SDS011;8692;52.164;7.558;2022-09-17T05:03:26;8.43;;;2.20;;
17153;SDS011;8692;52.164;7.558;2022-09-17T05:05:57;8.57;;;2.10;;
17153;SDS011;8692;52.164;7.558;2022-09-17T05:08:25;12.07;;;1.63;;
17153;SDS011;8692;52.164;7.558;2022-09-17T05:10:53;5.90;;;1.63;;
17153;SDS011;8692;52.164;7.558;2022-09-17T05:13:21;5.97;;;1.33;;
17153;SDS011;8692;52.164;7.558;2022-09-17T05:15:52;7.63;;;1.80;;
17153;SDS011;8692;52.164;7.558;2022-09-17T05:18:21;5.77;;;1.60;;
17153;SDS011;8692;52.164;7.558;2022-09-17T05:20:50;5.70;;;1.83;;
17153;SDS011;8692;52.164;7.558;2022-09-17T05:23:21;4.77;;;1.50;;
17153;SDS011;8692;52.164;7.558;2022-09-17T05:25:49;8.03;;;2.40;;
17153;SDS011;8692;52.164;7.558;2022-09-17T05:28:18;8.77;;;1.63;;
17153;SDS011;8692;52.164;7.558;2022-09-17T05:30:46;7.23;;;2.00;;
17153;SDS011;8692;52.164;7.558;2022-09-17T05:33:17;4.30;;;1.40;;
17153;SDS011;8692;52.164;7.558;2022-09-17T05:35:46;10.13;;;2.13;;
17153;SDS011;8692;52.164;7.558;2022-09-17T05:38:14;12.23;;;2.00;;
17153;SDS011;8692;52.164;7.558;2022-09-17T05:40:43;9.83;;;2.40;;
17153;SDS011;8692;52.164;7.558;2022-09-17T05:43:14;9.17;;;1.97;;
17153;SDS011;8692;52.164;7.558;2022-09-17T05:45:42;9.83;;;1.90;;
17153;SDS011;8692;52.164;7.558;2022-09-17T05:48:13;7.73;;;1.77;;
17153;SDS011;8692;52.164;7.558;2022-09-17T05:50:43;10.13;;;2.23;;
17153;SDS011;8692;52.164;7.558;2022-09-17T05:53:14;4.60;;;1.20;;
17153;SDS011;8692;52.164;7.558;2022-09-17T05:55:44;11.33;;;1.80;;
17153;SDS011;8692;52.164;7.558;2022-09-17T05:58:12;5.90;;;1.53;;
17153;SDS011;8692;52.164;7.558;2022-09-17T06:00:42;9.03;;;1.73;;
17153;SDS011;8692;52.164;7.558;2022-09-17T06:03:15;9.73;;;1.93;;
17153;SDS011;8692;52.164;7.558;2022-09-17T06:05:51;10.20;;;2.13;;
17153;SDS011;8692;52.164;7.558;2022-09-17T06:08:21;8.83;;;2.00;;
17153;SDS011;8692;52.164;7.558;2022-09-17T06:10:51;8.97;;;1.83;;
17153;SDS011;8692;52.164;7.558;2022-09-17T06:13:25;8.97;;;1.60;;
17153;SDS011;8692;52.164;7.558;2022-09-17T06:15:56;5.43;;;1.70;;
17153;SDS011;8692;52.164;7.558;2022-09-17T06:18:24;9.67;;;1.70;;
17153;SDS011;8692;52.164;7.558;2022-09-17T06:20:55;7.87;;;1.70;;
17153;SDS011;8692;52.164;7.558;2022-09-17T06:23:25;7.13;;;1.73;;
17153;SDS011;8692;52.164;7.558;2022-09-17T06:25:54;11.07;;;2.00;;
17153;SDS011;8692;52.164;7.558;2022-09-17T06:28:23;10.13;;;1.80;;
17153;SDS011;8692;52.164;7.558;2022-09-17T06:30:52;11.63;;;2.17;;
17153;SDS011;8692;52.164;7.558;2022-09-17T06:33:24;6.23;;;1.53;;
17153;SDS011;8692;52.164;7.558;2022-09-17T06:35:56;5.63;;;1.43;;
17153;SDS011;8692;52.164;7.558;2022-09-17T06:38:26;7.77;;;1.63;;
17153;SDS011;8692;52.164;7.558;2022-09-17T06:40:54;11.07;;;1.60;;
17153;SDS011;8692;52.164;7.558;2022-09-17T06:43:25;8.93;;;1.90;;
17153;SDS011;8692;52.164;7.558;2022-09-17T06:45:57;11.77;;;2.80;;
17153;SDS011;8692;52.164;7.558;2022-09-17T06:48:26;7.87;;;1.57;;
17153;SDS011;8692;52.164;7.558;2022-09-17T06:51:00;5.73;;;1.50;;
17153;SDS011;8692;52.164;7.558;2022-09-17T06:53:29;7.23;;;2.27;;
17153;SDS011;8692;52.164;7.558;2022-09-17T06:55:58;7.57;;;1.40;;
17153;SDS011;8692;52.164;7.558;2022-09-17T06:58:32;4.50;;;1.40;;
17153;SDS011;8692;52.164;7.558;2022-09-17T07:01:02;5.70;;;1.37;;
17153;SDS011;8692;52.164;7.558;2022-09-17T07:03:32;4.70;;;1.50;;
17153;SDS011;8692;52.164;7.558;2022-09-17T07:06:02;3.43;;;1.23;;
17153;SDS011;8692;52.164;7.558;2022-09-17T07:08:30;9.97;;;1.90;;
17153;SDS011;8692;52.164;7.558;2022-09-17T07:11:00;8.00;;;2.00;;
17153;SDS011;8692;52.164;7.558;2022-09-17T07:13:28;7.63;;;1.77;;
17153;SDS011;8692;52.164;7.558;2022-09-17T07:15:59;8.57;;;1.23;;
17153;SDS011;8692;52.164;7.558;2022-09-17T07:18:32;3.43;;;1.20;;
17153;SDS011;8692;52.164;7.558;2022-09-17T07:21:02;6.83;;;1.53;;
17153;SDS011;8692;52.164;7.558;2022-09-17T07:23:34;7.27;;;1.80;;
17153;SDS011;8692;52.164;7.558;2022-09-17T07:26:05;8.37;;;1.73;;
17153;SDS011;8692;52.164;7.558;2022-09-17T07:28:37;9.20;;;1.73;;
17153;SDS011;8692;52.164;7.558;2022-09-17T07:31:07;7.97;;;1.47;;
17153;SDS011;8692;52.164;7.558;2022-09-17T07:33:43;10.13;;;1.63;;
17153;SDS011;8692;52.164;7.558;2022-09-17T07:36:13;6.23;;;1.60;;
17153;SDS011;8692;52.164;7.558;2022-09-17T07:38:43;8.40;;;1.50;;
17153;SDS011;8692;52.164;7.558;2022-09-17T07:41:12;9.97;;;1.90;;
17153;SDS011;8692;52.164;7.558;2022-09-17T07:43:42;6.03;;;1.50;;
17153;SDS011;8692;52.164;7.558;2022-09-17T07:46:14;9.03;;;1.77;;
17153;SDS011;8692;52.164;7.558;2022-09-17T07:48:43;8.90;;;1.57;;
17153;SDS011;8692;52.164;7.558;2022-09-17T07:51:17;9.53;;;1.63;;
17153;SDS011;8692;52.164;7.558;2022-09-17T07:53:49;4.33;;;1.33;;
17153;SDS011;8692;52.164;7.558;2022-09-17T07:56:17;6.97;;;1.90;;
17153;SDS011;8692;52.164;7.558;2022-09-17T07:58:46;9.07;;;1.77;;
17153;SDS011;8692;52.164;7.558;2022-09-17T08:01:14;9.50;;;1.87;;
17153;SDS011;8692;52.164;7.558;2022-09-17T08:03:46;8.53;;;1.20;;
17153;SDS011;8692;52.164;7.558;2022-09-17T08:06:18;8.83;;;1.43;;
17153;SDS011;8692;52.164;7.558;2022-09-17T08:08:47;10.63;;;1.97;;
17153;SDS011;8692;52.164;7.558;2022-09-17T08:11:19;8.50;;;1.73;;
17153;SDS011;8692;52.164;7.558;2022-09-17T08:14:08;7.90;;;2.03;;
17153;SDS011;8692;52.164;7.558;2022-09-17T08:16:38;6.57;;;1.57;;
17153;SDS011;8692;52.164;7.558;2022-09-17T08:19:06;11.40;;;1.50;;
17153;SDS011;8692;52.164;7.558;2022-09-17T08:21:39;10.10;;;2.70;;
17153;SDS011;8692;52.164;7.558;2022-09-17T08:24:09;6.60;;;1.70;;
17153;SDS011;8692;52.164;7.558;2022-09-17T08:26:38;7.83;;;1.70;;
17153;SDS011;8692;52.164;7.558;2022-09-17T08:29:07;8.80;;;1.70;;
17153;SDS011;8692;52.164;7.558;2022-09-17T08:31:36;10.30;;;2.00;;
17153;SDS011;8692;52.164;7.558;2022-09-17T08:34:06;7.63;;;1.80;;
17153;SDS011;8692;52.164;7.558;2022-09-17T08:36:35;10.93;;;1.27;;
17153;SDS011;8692;52.164;7.558;2022-09-17T08:39:05;7.77;;;1.80;;
17153;SDS011;8692;52.164;7.558;2022-09-17T08:41:36;4.63;;;1.50;;
17153;SDS011;8692;52.164;7.558;2022-09-17T08:44:17;5.30;;;1.73;;
17153;SDS011;8692;52.164;7.558;2022-09-17T08:46:52;7.67;;;1.77;;
17153;SDS011;8692;52.164;7.558;2022-09-17T08:49:29;6.23;;;1.37;;
17153;SDS011;8692;52.164;7.558;2022-09-17T08:52:05;5.87;;;1.70;;
17153;SDS011;8692;52.164;7.558;2022-09-17T08:54:52;5.97;;;1.60;;
17153;SDS011;8692;52.164;7.558;2022-09-17T08:57:24;9.33;;;1.20;;
17153;SDS011;8692;52.164;7.558;2022-09-17T09:00:03;4.80;;;1.43;;
17153;SDS011;8692;52.164;7.558;2022-09-17T09:02:40;3.33;;;1.03;;
17153;SDS011;8692;52.164;7.558;2022-09-17T09:05:25;4.07;;;1.10;;
17153;SDS011;8692;52.164;7.558;2022-09-17T09:07:59;6.50;;;1.63;;
17153;SDS011;8692;52.164;7.558;2022-09-17T09:10:39;4.13;;;1.00;;
17153;SDS011;8692;52.164;7.558;2022-09-17T09:13:18;5.67;;;1.37;;
17153;SDS011;8692;52.164;7.558;2022-09-17T09:15:50;4.73;;;1.37;;
17153;SDS011;8692;52.164;7.558;2022-09-17T09:18:24;5.23;;;1.10;;
17153;SDS011;8692;52.164;7.558;2022-09-17T09:20:57;3.77;;;1.63;;
17153;SDS011;8692;52.164;7.558;2022-09-17T09:23:47;2.90;;;0.97;;
17153;SDS011;8692;52.164;7.558;2022-09-17T09:26:21;5.70;;;1.20;;
17153;SDS011;8692;52.164;7.558;2022-09-17T09:28:55;2.87;;;1.10;;
17153;SDS011;8692;52.164;7.558;2022-09-17T09:31:41;4.23;;;1.17;;
17153;SDS011;8692;52.164;7.558;2022-09-17T09:34:21;7.23;;;1.07;;
17153;SDS011;8692;52.164;7.558;2022-09-17T09:36:50;3.30;;;0.97;;
17153;SDS011;8692;52.164;7.558;2022-09-17T09:39:22;4.07;;;0.97;;
17153;SDS011;8692;52.164;7.558;2022-09-17T09:41:59;2.87;;;1.30;;
17153;SDS011;8692;52.164;7.558;2022-09-17T09:44:32;7.20;;;1.37;;
17153;SDS011;8692;52.164;7.558;2022-09-17T09:47:03;2.33;;;0.93;;
17153;SDS011;8692;52.164;7.558;2022-09-17T09:53:21;1.83;;;0.83;;
17153;SDS011;8692;52.164;7.558;2022-09-17T09:56:00;4.50;;;0.73;;
17153;SDS011;8692;52.164;7.558;2022-09-17T09:58:39;3.67;;;1.23;;
17153;SDS011;8692;52.164;7.558;2022-09-17T10:01:10;0.93;;;0.53;;
17153;SDS011;8692;52.164;7.558;2022-09-17T10:03:40;3.40;;;0.70;;
17153;SDS011;8692;52.164;7.558;2022-09-17T10:06:11;7.50;;;1.17;;
17153;SDS011;8692;52.164;7.558;2022-09-17T10:08:41;4.73;;;0.90;;
17153;SDS011;8692;52.164;7.558;2022-09-17T10:11:30;1.13;;;0.60;;
17153;SDS011;8692;52.164;7.558;2022-09-17T10:14:14;1.97;;;0.70;;
17153;SDS011;8692;52.164;7.558;2022-09-17T10:16:49;2.30;;;0.60;;
17153;SDS011;8692;52.164;7.558;2022-09-17T10:19:45;5.73;;;0.60;;
17153;SDS011;8692;52.164;7.558;2022-09-17T10:22:38;2.60;;;0.80;;
17153;SDS011;8692;52.164;7.558;2022-09-17T10:25:28;1.30;;;0.57;;
17153;SDS011;8692;52.164;7.558;2022-09-17T10:27:58;2.00;;;0.83;;
17153;SDS011;8692;52.164;7.558;2022-09-17T10:30:31;3.27;;;0.83;;
17153;SDS011;8692;52.164;7.558;2022-09-17T10:33:17;1.93;;;0.90;;
17153;SDS011;8692;52.164;7.558;2022-09-17T10:35:55;2.57;;;0.60;;
17153;SDS011;8692;52.164;7.558;2022-09-17T10:38:27;1.93;;;0.70;;
17153;SDS011;8692;52.164;7.558;2022-09-17T10:41:10;2.90;;;0.70;;
17153;SDS011;8692;52.164;7.558;2022-09-17T10:43:42;4.60;;;0.80;;
17153;SDS011;8692;52.164;7.558;2022-09-17T10:46:14;2.63;;;0.83;;
17153;SDS011;8692;52.164;7.558;2022-09-17T10:49:04;6.53;;;1.10;;
17153;SDS011;8692;52.164;7.558;2022-09-17T10:51:37;2.37;;;0.70;;
17153;SDS011;8692;52.164;7.558;2022-09-17T10:54:14;2.30;;;0.80;;
17153;SDS011;8692;52.164;7.558;2022-09-17T10:57:01;3.93;;;0.73;;
17153;SDS011;8692;52.164;7.558;2022-09-17T10:59:39;2.87;;;0.80;;
17153;SDS011;8692;52.164;7.558;2022-09-17T11:05:37;5.33;;;0.80;;
17153;SDS011;8692;52.164;7.558;2022-09-17T11:08:11;1.77;;;0.50;;
17153;SDS011;8692;52.164;7.558;2022-09-17T11:10:50;2.13;;;0.87;;
17153;SDS011;8692;52.164;7.558;2022-09-17T11:13:29;3.43;;;0.70;;
17153;SDS011;8692;52.164;7.558;2022-09-17T11:16:10;4.27;;;0.90;;
17153;SDS011;8692;52.164;7.558;2022-09-17T11:18:45;2.70;;;0.87;;
17153;SDS011;8692;52.164;7.558;2022-09-17T11:21:22;1.73;;;0.60;;
17153;SDS011;8692;52.164;7.558;2022-09-17T11:24:21;7.70;;;1.10;;
17153;SDS011;8692;52.164;7.558;2022-09-17T11:27:17;2.10;;;0.60;;
17153;SDS011;8692;52.164;7.558;2022-09-17T11:30:14;1.20;;;0.70;;
17153;SDS011;8692;52.164;7.558;2022-09-17T11:33:08;2.67;;;0.80;;
17153;SDS011;8692;52.164;7.558;2022-09-17T11:35:48;4.63;;;1.00;;
17153;SDS011;8692;52.164;7.558;2022-09-17T11:38:24;2.27;;;0.80;;
17153;SDS011;8692;52.164;7.558;2022-09-17T11:40:59;2.63;;;0.87;;
17153;SDS011;8692;52.164;7.558;2022-09-17T11:43:34;3.47;;;0.90;;
17153;SDS011;8692;52.164;7.558;2022-09-17T11:46:06;2.03;;;0.63;;
17153;SDS011;8692;52.164;7.558;2022-09-17T11:48:41;3.93;;;0.90;;
17153;SDS011;8692;52.164;7.558;2022-09-17T11:51:26;4.40;;;0.93;;
17153;SDS011;8692;52.164;7.558;2022-09-17T11:54:00;3.83;;;0.90;;
17153;SDS011;8692;52.164;7.558;2022-09-17T11:56:34;3.93;;;1.00;;
17153;SDS011;8692;52.164;7.558;2022-09-17T11:59:11;6.13;;;0.97;;
17153;SDS011;8692;52.164;7.558;2022-09-17T12:01:44;3.30;;;1.03;;
17153;SDS011;8692;52.164;7.558;2022-09-17T12:07:18;3.27;;;0.57;;
17153;SDS011;8692;52.164;7.558;2022-09-17T12:09:57;6.53;;;0.80;;
17153;SDS011;8692;52.164;7.558;2022-09-17T12:12:32;1.60;;;0.50;;
17153;SDS011;8692;52.164;7.558;2022-09-17T12:15:19;3.33;;;0.60;;
17153;SDS011;8692;52.164;7.558;2022-09-17T12:18:03;5.33;;;1.30;;
17153;SDS011;8692;52.164;7.558;2022-09-17T12:21:00;3.27;;;0.73;;
17153;SDS011;8692;52.164;7.558;2022-09-17T12:23:34;3.53;;;1.10;;
17153;SDS011;8692;52.164;7.558;2022-09-17T12:26:15;3.33;;;0.60;;
17153;SDS011;8692;52.164;7.558;2022-09-17T12:28:58;2.63;;;0.70;;
17153;SDS011;8692;52.164;7.558;2022-09-17T12:31:35;2.87;;;0.80;;
17153;SDS011;8692;52.164;7.558;2022-09-17T12:34:17;1.23;;;0.43;;
17153;SDS011;8692;52.164;7.558;2022-09-17T12:36:54;1.27;;;0.50;;
17153;SDS011;8692;52.164;7.558;2022-09-17T12:39:50;0.83;;;0.50;;
17153;SDS011;8692;52.164;7.558;2022-09-17T12:42:37;2.23;;;0.67;;
17153;SDS011;8692;52.164;7.558;2022-09-17T12:45:24;3.23;;;0.60;;
17153;SDS011;8692;52.164;7.558;2022-09-17T12:48:12;1.43;;;0.70;;
17153;SDS011;8692;52.164;7.558;2022-09-17T12:50:58;3.47;;;0.80;;
17153;SDS011;8692;52.164;7.558;2022-09-17T12:53:40;3.20;;;1.10;;
17153;SDS011;8692;52.164;7.558;2022-09-17T12:56:22;2.23;;;0.80;;
17153;SDS011;8692;52.164;7.558;2022-09-17T12:59:06;3.80;;;0.90;;
17153;SDS011;8692;52.164;7.558;2022-09-17T13:01:38;2.03;;;0.70;;
17153;SDS011;8692;52.164;7.558;2022-09-17T13:07:38;3.40;;;0.73;;
17153;SDS011;8692;52.164;7.558;2022-09-17T13:13:25;3.30;;;1.27;;
17153;SDS011;8692;52.164;7.558;2022-09-17T13:16:05;4.40;;;1.07;;
17153;SDS011;8692;52.164;7.558;2022-09-17T13:18:43;2.67;;;1.13;;
17153;SDS011;8692;52.164;7.558;2022-09-17T13:21:39;5.27;;;1.70;;
17153;SDS011;8692;52.164;7.558;2022-09-17T13:24:15;4.47;;;1.20;;
17153;SDS011;8692;52.164;7.558;2022-09-17T13:26:45;4.23;;;0.77;;
17153;SDS011;8692;52.164;7.558;2022-09-17T13:38:17;1.37;;;0.80;;
17153;SDS011;8692;52.164;7.558;2022-09-17T13:40:49;2.87;;;0.93;;
17153;SDS011;8692;52.164;7.558;2022-09-17T13:43:21;4.60;;;0.97;;
17153;SDS011;8692;52.164;7.558;2022-09-17T13:46:09;4.07;;;1.00;;
17153;SDS011;8692;52.164;7.558;2022-09-17T13:48:47;3.17;;;1.00;;
17153;SDS011;8692;52.164;7.558;2022-09-17T13:54:15;2.03;;;0.63;;
17153;SDS011;8692;52.164;7.558;2022-09-17T13:56:49;3.27;;;1.10;;
17153;SDS011;8692;52.164;7.558;2022-09-17T13:59:37;5.33;;;1.00;;
17153;SDS011;8692;52.164;7.558;2022-09-17T14:02:30;3.93;;;1.00;;
17153;SDS011;8692;52.164;7.558;2022-09-17T14:11:00;7.27;;;1.37;;
17153;SDS011;8692;52.164;7.558;2022-09-17T14:13:43;5.63;;;1.13;;
17153;SDS011;8692;52.164;7.558;2022-09-17T14:16:33;5.80;;;1.30;;
17153;SDS011;8692;52.164;7.558;2022-09-17T14:19:19;4.53;;;1.10;;
17153;SDS011;8692;52.164;7.558;2022-09-17T14:22:14;4.17;;;1.07;;
17153;SDS011;8692;52.164;7.558;2022-09-17T14:24:46;4.03;;;1.10;;
17153;SDS011;8692;52.164;7.558;2022-09-17T14:27:29;5.20;;;1.60;;
17153;SDS011;8692;52.164;7.558;2022-09-17T14:30:13;4.60;;;1.50;;
17153;SDS011;8692;52.164;7.558;2022-09-17T14:32:53;4.57;;;1.40;;
17153;SDS011;8692;52.164;7.558;2022-09-17T14:35:30;11.37;;;2.33;;
17153;SDS011;8692;52.164;7.558;2022-09-17T14:38:06;5.27;;;3.17;;
17153;SDS011;8692;52.164;7.558;2022-09-17T14:40:41;8.03;;;1.70;;
17153;SDS011;8692;52.164;7.558;2022-09-17T14:43:14;3.70;;;1.30;;
17153;SDS011;8692;52.164;7.558;2022-09-17T14:45:48;3.70;;;1.33;;
17153;SDS011;8692;52.164;7.558;2022-09-17T14:48:25;8.43;;;2.00;;
17153;SDS011;8692;52.164;7.558;2022-09-17T14:54:07;7.50;;;1.80;;
17153;SDS011;8692;52.164;7.558;2022-09-17T14:56:45;7.23;;;1.53;;
17153;SDS011;8692;52.164;7.558;2022-09-17T14:59:28;5.83;;;1.67;;
17153;SDS011;8692;52.164;7.558;2022-09-17T15:02:23;5.77;;;1.73;;
17153;SDS011;8692;52.164;7.558;2022-09-17T15:04:59;4.40;;;1.50;;
17153;SDS011;8692;52.164;7.558;2022-09-17T15:07:31;6.93;;;2.03;;
17153;SDS011;8692;52.164;7.558;2022-09-17T15:10:07;7.00;;;2.37;;
17153;SDS011;8692;52.164;7.558;2022-09-17T15:12:39;11.10;;;1.57;;
17153;SDS011;8692;52.164;7.558;2022-09-17T15:15:16;5.77;;;1.73;;
17153;SDS011;8692;52.164;7.558;2022-09-17T15:17:49;7.80;;;1.63;;
17153;SDS011;8692;52.164;7.558;2022-09-17T15:20:21;9.17;;;1.67;;
17153;SDS011;8692;52.164;7.558;2022-09-17T15:22:53;7.63;;;1.70;;
17153;SDS011;8692;52.164;7.558;2022-09-17T15:25:26;7.27;;;1.90;;
17153;SDS011;8692;52.164;7.558;2022-09-17T15:27:57;4.77;;;1.60;;
17153;SDS011;8692;52.164;7.558;2022-09-17T15:30:32;6.13;;;2.07;;
17153;SDS011;8692;52.164;7.558;2022-09-17T15:33:01;5.93;;;1.97;;
17153;SDS011;8692;52.164;7.558;2022-09-17T15:35:29;4.70;;;1.63;;
17153;SDS011;8692;52.164;7.558;2022-09-17T15:37:59;3.77;;;1.40;;
17153;SDS011;8692;52.164;7.558;2022-09-17T15:40:49;5.27;;;1.73;;
17153;SDS011;8692;52.164;7.558;2022-09-17T15:43:23;14.20;;;2.10;;
17153;SDS011;8692;52.164;7.558;2022-09-17T15:45:53;7.83;;;1.47;;
17153;SDS011;8692;52.164;7.558;2022-09-17T15:48:35;9.53;;;1.80;;
17153;SDS011;8692;52.164;7.558;2022-09-17T15:51:13;6.07;;;1.60;;
17153;SDS011;8692;52.164;7.558;2022-09-17T15:53:53;3.03;;;1.20;;
17153;SDS011;8692;52.164;7.558;2022-09-17T15:56:25;5.63;;;1.20;;
17153;SDS011;8692;52.164;7.558;2022-09-17T15:58:57;4.07;;;1.20;;
17153;SDS011;8692;52.164;7.558;2022-09-17T16:04:21;4.03;;;1.10;;
17153;SDS011;8692;52.164;7.558;2022-09-17T16:07:26;4.53;;;1.30;;
17153;SDS011;8692;52.164;7.558;2022-09-17T16:09:59;3.03;;;1.17;;
17153;SDS011;8692;52.164;7.558;2022-09-17T16:12:29;4.13;;;1.40;;
17153;SDS011;8692;52.164;7.558;2022-09-17T16:14:58;7.13;;;1.10;;
17153;SDS011;8692;52.164;7.558;2022-09-17T16:17:40;5.33;;;1.20;;
17153;SDS011;8692;52.164;7.558;2022-09-17T16:20:13;4.20;;;1.43;;
17153;SDS011;8692;52.164;7.558;2022-09-17T16:22:43;5.43;;;1.20;;
17153;SDS011;8692;52.164;7.558;2022-09-17T16:25:15;5.97;;;1.53;;
17153;SDS011;8692;52.164;7.558;2022-09-17T16:27:49;6.47;;;1.40;;
17153;SDS011;8692;52.164;7.558;2022-09-17T16:30:21;5.17;;;1.23;;
17153;SDS011;8692;52.164;7.558;2022-09-17T16:32:50;5.13;;;1.70;;
17153;SDS011;8692;52.164;7.558;2022-09-17T16:35:19;4.83;;;1.53;;